メインページ
METAR-TAF:

METAR-TAF

空港 :

マイアミ国際空港

マイアミ, フロリダ州, アメリカ合衆国

緯度: 25-47-26N, 経度: 080-18-59W, 海抜: 3m

現時点の気象観測

当レポートは58分前の06:53(UTC)に作成
南/南西の風 5kt
気温 27°C
湿度 84%
気圧 1016 hPa
視程: 16.1km
高度5000ftの雲はほとんどない
高度25000ftの雲はほとんどない

METAR: KMIA 190653Z 21005KT 10SM FEW050 FEW250 27/24 A3001 RMK AO2 SLP163 T02720244

時間: 03:51 (07:51 UTC)

予報

当レポートは2時間22分前の05:29(UTC)に作成
予報は19日の 06時(UTC)から 20日の 12時(UTC)まで有効
南西の風 4kt
視程: 10km
高度5000ftの雲はほとんどない
高度25000ftの雲は散在している
19日の 1600時(UTC)から
南/南東の風 6kt
視程: 10km
高度3500ftの雲は散在している
19日の 2000時(UTC)から
の風 6kt
視程: 10km
高度3500ftの雲は散在している, 積乱雲.
高度20000ftの千切れ雲あり
近辺で激しい雷雨
20日の 0000時(UTC)から
の風 3kt
視程: 10km
高度25000ftの雲は散在している

TAF: KMIA 190529Z 1906/2012 23004KT P6SM FEW050 SCT250 FM191600 16006KT P6SM SCT035 FM192000 17006KT P6SM VCTS SCT035CB BKN200 FM200000 19003KT P6SM SCT250

4,000以上の空港の気象観測と天気予報(METAR報とTAF報)

利用可能な観測所は地図上に黄色い丸と赤い丸で示す。

丸の上にカーソルを重ねると観測所名を参照できる。

次にクリックすると気象観測と天気予報を参照できる。

マップの切り替え:黒色「×」印の緑ボタンをクリックして拡大、「-」印の緑ボタンをクリックして縮小、緑色の三角印をクリックして隣りの地図に切り替え


METAR-TAF: